New Preston, Connecticut
Current Conditions -  °F | °C
As of 5:52 PM on Thursday 27 Nov 2014 (Local Time) from KOXC Reporting Station
Overcast Overcast  
Wind Chill: 30°   Ceiling: 7000
Heat Index: 30°   Visibility: 10mi
Dew Point: 23°   Wind: 0mph
Humidity: 75%   Direction: NA
Pressure: 29.98"   Gusts: NA
Location:  41.6879°N, 73.3378°W
Report Text: KOXC 272152Z 00000KT 10SM SCT050 OVC070 M01/M05 A2998
Loading
Personal Weather Stations






























Interactive Weather Map New forecast layout! Learn more

10-Day Weather Forecast

Advertisements
Track Severe Weather on mobile